sensor_id;sensor_type;location;lat;lon;timestamp;P1;durP1;ratioP1;P2;durP2;ratioP2
75246;SDS011;63844;50.042;19.224;2023-12-29T00:00:21;26.20;;;11.90;;
75246;SDS011;63844;50.042;19.224;2023-12-29T00:02:17;21.80;;;11.10;;
75246;SDS011;63844;50.042;19.224;2023-12-29T00:03:53;24.20;;;11.90;;
75246;SDS011;63844;50.042;19.224;2023-12-29T00:05:30;26.80;;;13.10;;
75246;SDS011;63844;50.042;19.224;2023-12-29T00:07:06;18.20;;;10.10;;
75246;SDS011;63844;50.042;19.224;2023-12-29T00:08:43;24.60;;;11.50;;
75246;SDS011;63844;50.042;19.224;2023-12-29T00:10:19;19.90;;;10.10;;
75246;SDS011;63844;50.042;19.224;2023-12-29T00:11:56;22.20;;;11.60;;
75246;SDS011;63844;50.042;19.224;2023-12-29T00:13:32;22.90;;;11.80;;
75246;SDS011;63844;50.042;19.224;2023-12-29T00:15:08;24.00;;;12.50;;
75246;SDS011;63844;50.042;19.224;2023-12-29T00:16:45;21.10;;;11.70;;
75246;SDS011;63844;50.042;19.224;2023-12-29T00:18:22;23.70;;;12.70;;
75246;SDS011;63844;50.042;19.224;2023-12-29T00:19:58;21.20;;;10.90;;
75246;SDS011;63844;50.042;19.224;2023-12-29T00:21:35;25.90;;;12.70;;
75246;SDS011;63844;50.042;19.224;2023-12-29T00:23:12;22.90;;;11.70;;
75246;SDS011;63844;50.042;19.224;2023-12-29T00:24:48;23.80;;;12.60;;
75246;SDS011;63844;50.042;19.224;2023-12-29T00:26:25;23.10;;;10.90;;
75246;SDS011;63844;50.042;19.224;2023-12-29T00:28:01;24.40;;;12.40;;
75246;SDS011;63844;50.042;19.224;2023-12-29T00:29:38;24.10;;;11.80;;
75246;SDS011;63844;50.042;19.224;2023-12-29T00:31:15;24.10;;;12.20;;
75246;SDS011;63844;50.042;19.224;2023-12-29T00:32:52;21.80;;;11.70;;
75246;SDS011;63844;50.042;19.224;2023-12-29T00:34:29;26.10;;;12.40;;
75246;SDS011;63844;50.042;19.224;2023-12-29T00:36:05;23.50;;;11.10;;
75246;SDS011;63844;50.042;19.224;2023-12-29T00:37:42;23.70;;;11.70;;
75246;SDS011;63844;50.042;19.224;2023-12-29T00:39:18;21.20;;;11.60;;
75246;SDS011;63844;50.042;19.224;2023-12-29T00:40:55;20.60;;;10.60;;
75246;SDS011;63844;50.042;19.224;2023-12-29T00:42:31;23.90;;;11.50;;
75246;SDS011;63844;50.042;19.224;2023-12-29T00:44:08;22.80;;;11.30;;
75246;SDS011;63844;50.042;19.224;2023-12-29T00:45:44;19.60;;;10.70;;
75246;SDS011;63844;50.042;19.224;2023-12-29T00:47:21;21.10;;;10.70;;
75246;SDS011;63844;50.042;19.224;2023-12-29T00:48:59;19.90;;;10.60;;
75246;SDS011;63844;50.042;19.224;2023-12-29T00:50:36;19.10;;;11.10;;
75246;SDS011;63844;50.042;19.224;2023-12-29T00:52:12;23.30;;;10.60;;
75246;SDS011;63844;50.042;19.224;2023-12-29T00:53:49;22.90;;;11.00;;
75246;SDS011;63844;50.042;19.224;2023-12-29T00:55:25;22.00;;;10.60;;
75246;SDS011;63844;50.042;19.224;2023-12-29T00:57:01;20.50;;;10.90;;
75246;SDS011;63844;50.042;19.224;2023-12-29T00:58:38;21.20;;;11.00;;
75246;SDS011;63844;50.042;19.224;2023-12-29T01:00:15;20.60;;;10.40;;
75246;SDS011;63844;50.042;19.224;2023-12-29T01:01:51;18.30;;;10.00;;
75246;SDS011;63844;50.042;19.224;2023-12-29T01:03:28;22.50;;;11.00;;
75246;SDS011;63844;50.042;19.224;2023-12-29T01:05:04;19.50;;;10.70;;
75246;SDS011;63844;50.042;19.224;2023-12-29T01:06:41;22.60;;;11.00;;
75246;SDS011;63844;50.042;19.224;2023-12-29T01:08:18;22.10;;;11.50;;
75246;SDS011;63844;50.042;19.224;2023-12-29T01:09:54;19.20;;;10.90;;
75246;SDS011;63844;50.042;19.224;2023-12-29T01:11:31;20.30;;;10.80;;
75246;SDS011;63844;50.042;19.224;2023-12-29T01:13:07;21.40;;;11.00;;
75246;SDS011;63844;50.042;19.224;2023-12-29T01:14:44;20.10;;;9.90;;
75246;SDS011;63844;50.042;19.224;2023-12-29T01:16:20;23.50;;;11.60;;
75246;SDS011;63844;50.042;19.224;2023-12-29T01:17:57;25.20;;;12.30;;
75246;SDS011;63844;50.042;19.224;2023-12-29T01:19:33;24.50;;;11.20;;
75246;SDS011;63844;50.042;19.224;2023-12-29T01:21:09;23.40;;;12.70;;
75246;SDS011;63844;50.042;19.224;2023-12-29T01:22:46;25.20;;;12.20;;
75246;SDS011;63844;50.042;19.224;2023-12-29T01:24:22;24.80;;;11.90;;
75246;SDS011;63844;50.042;19.224;2023-12-29T01:25:59;23.00;;;11.70;;
75246;SDS011;63844;50.042;19.224;2023-12-29T01:27:35;26.00;;;12.60;;
75246;SDS011;63844;50.042;19.224;2023-12-29T01:29:11;23.60;;;12.10;;
75246;SDS011;63844;50.042;19.224;2023-12-29T01:30:48;25.80;;;13.20;;
75246;SDS011;63844;50.042;19.224;2023-12-29T01:32:24;26.40;;;12.00;;
75246;SDS011;63844;50.042;19.224;2023-12-29T01:34:01;25.10;;;12.70;;
75246;SDS011;63844;50.042;19.224;2023-12-29T01:35:38;25.50;;;13.20;;
75246;SDS011;63844;50.042;19.224;2023-12-29T01:37:15;27.00;;;12.20;;
75246;SDS011;63844;50.042;19.224;2023-12-29T01:38:51;22.70;;;11.90;;
75246;SDS011;63844;50.042;19.224;2023-12-29T01:40:27;25.90;;;12.80;;
75246;SDS011;63844;50.042;19.224;2023-12-29T01:42:04;24.40;;;12.60;;
75246;SDS011;63844;50.042;19.224;2023-12-29T01:44:07;26.90;;;12.70;;
75246;SDS011;63844;50.042;19.224;2023-12-29T01:45:53;23.50;;;11.00;;
75246;SDS011;63844;50.042;19.224;2023-12-29T01:47:30;24.40;;;10.90;;
75246;SDS011;63844;50.042;19.224;2023-12-29T01:49:06;22.30;;;10.70;;
75246;SDS011;63844;50.042;19.224;2023-12-29T01:50:43;20.90;;;10.50;;
75246;SDS011;63844;50.042;19.224;2023-12-29T01:52:20;22.00;;;11.10;;
75246;SDS011;63844;50.042;19.224;2023-12-29T01:53:57;24.80;;;12.10;;
75246;SDS011;63844;50.042;19.224;2023-12-29T01:55:34;20.80;;;11.40;;
75246;SDS011;63844;50.042;19.224;2023-12-29T01:57:10;24.30;;;11.80;;
75246;SDS011;63844;50.042;19.224;2023-12-29T01:58:48;25.60;;;12.60;;
75246;SDS011;63844;50.042;19.224;2023-12-29T02:00:25;22.40;;;12.60;;
75246;SDS011;63844;50.042;19.224;2023-12-29T02:02:02;21.30;;;11.00;;
75246;SDS011;63844;50.042;19.224;2023-12-29T02:03:39;20.00;;;10.50;;
75246;SDS011;63844;50.042;19.224;2023-12-29T02:05:16;23.60;;;12.00;;
75246;SDS011;63844;50.042;19.224;2023-12-29T02:06:53;23.30;;;11.00;;
75246;SDS011;63844;50.042;19.224;2023-12-29T02:08:31;26.70;;;12.60;;
75246;SDS011;63844;50.042;19.224;2023-12-29T02:10:08;21.10;;;10.90;;
75246;SDS011;63844;50.042;19.224;2023-12-29T02:11:46;25.80;;;12.30;;
75246;SDS011;63844;50.042;19.224;2023-12-29T02:13:23;21.00;;;11.00;;
75246;SDS011;63844;50.042;19.224;2023-12-29T02:15:00;21.80;;;11.10;;
75246;SDS011;63844;50.042;19.224;2023-12-29T02:18:19;22.60;;;10.80;;
75246;SDS011;63844;50.042;19.224;2023-12-29T02:19:57;19.10;;;9.10;;
75246;SDS011;63844;50.042;19.224;2023-12-29T02:21:34;19.00;;;10.20;;
75246;SDS011;63844;50.042;19.224;2023-12-29T02:23:10;18.40;;;10.50;;
75246;SDS011;63844;50.042;19.224;2023-12-29T02:24:50;15.90;;;8.70;;
75246;SDS011;63844;50.042;19.224;2023-12-29T02:26:27;20.60;;;10.00;;
75246;SDS011;63844;50.042;19.224;2023-12-29T02:28:25;21.50;;;10.30;;
75246;SDS011;63844;50.042;19.224;2023-12-29T02:30:06;19.40;;;9.80;;
75246;SDS011;63844;50.042;19.224;2023-12-29T02:31:47;20.20;;;9.50;;
75246;SDS011;63844;50.042;19.224;2023-12-29T02:33:29;21.80;;;9.90;;
75246;SDS011;63844;50.042;19.224;2023-12-29T02:35:13;22.10;;;10.50;;
75246;SDS011;63844;50.042;19.224;2023-12-29T02:36:53;19.60;;;11.70;;
75246;SDS011;63844;50.042;19.224;2023-12-29T02:38:32;24.70;;;14.20;;
75246;SDS011;63844;50.042;19.224;2023-12-29T02:40:10;20.20;;;10.50;;
75246;SDS011;63844;50.042;19.224;2023-12-29T02:41:47;17.60;;;9.30;;
75246;SDS011;63844;50.042;19.224;2023-12-29T02:43:23;17.20;;;9.70;;
75246;SDS011;63844;50.042;19.224;2023-12-29T02:45:00;16.70;;;9.70;;
75246;SDS011;63844;50.042;19.224;2023-12-29T02:46:36;18.90;;;9.50;;
75246;SDS011;63844;50.042;19.224;2023-12-29T02:48:13;20.60;;;10.20;;
75246;SDS011;63844;50.042;19.224;2023-12-29T02:49:49;18.40;;;10.10;;
75246;SDS011;63844;50.042;19.224;2023-12-29T02:51:26;22.00;;;10.40;;
75246;SDS011;63844;50.042;19.224;2023-12-29T02:53:03;16.30;;;8.70;;
75246;SDS011;63844;50.042;19.224;2023-12-29T02:54:40;17.20;;;8.90;;
75246;SDS011;63844;50.042;19.224;2023-12-29T02:56:16;19.00;;;9.80;;
75246;SDS011;63844;50.042;19.224;2023-12-29T02:57:53;17.20;;;9.70;;
75246;SDS011;63844;50.042;19.224;2023-12-29T02:59:29;20.90;;;10.40;;
75246;SDS011;63844;50.042;19.224;2023-12-29T03:01:06;16.90;;;9.50;;
75246;SDS011;63844;50.042;19.224;2023-12-29T03:02:42;18.10;;;9.90;;
75246;SDS011;63844;50.042;19.224;2023-12-29T03:04:20;19.00;;;9.40;;
75246;SDS011;63844;50.042;19.224;2023-12-29T03:05:56;18.00;;;10.40;;
75246;SDS011;63844;50.042;19.224;2023-12-29T03:07:33;18.10;;;10.30;;
75246;SDS011;63844;50.042;19.224;2023-12-29T03:09:09;18.40;;;10.60;;
75246;SDS011;63844;50.042;19.224;2023-12-29T03:10:46;16.70;;;9.00;;
75246;SDS011;63844;50.042;19.224;2023-12-29T03:12:22;21.40;;;9.80;;
75246;SDS011;63844;50.042;19.224;2023-12-29T03:13:58;20.20;;;10.20;;
75246;SDS011;63844;50.042;19.224;2023-12-29T03:15:35;16.80;;;9.50;;
75246;SDS011;63844;50.042;19.224;2023-12-29T03:17:11;17.80;;;9.40;;
75246;SDS011;63844;50.042;19.224;2023-12-29T03:18:48;18.10;;;9.70;;
75246;SDS011;63844;50.042;19.224;2023-12-29T03:20:24;17.50;;;10.10;;
75246;SDS011;63844;50.042;19.224;2023-12-29T03:22:01;18.60;;;10.10;;
75246;SDS011;63844;50.042;19.224;2023-12-29T03:23:37;19.10;;;9.60;;
75246;SDS011;63844;50.042;19.224;2023-12-29T03:25:14;17.30;;;9.40;;
75246;SDS011;63844;50.042;19.224;2023-12-29T03:26:50;18.00;;;9.30;;
75246;SDS011;63844;50.042;19.224;2023-12-29T03:28:27;21.60;;;10.60;;
75246;SDS011;63844;50.042;19.224;2023-12-29T03:30:03;17.80;;;9.30;;
75246;SDS011;63844;50.042;19.224;2023-12-29T03:31:40;18.90;;;10.60;;
75246;SDS011;63844;50.042;19.224;2023-12-29T03:33:16;18.80;;;10.00;;
75246;SDS011;63844;50.042;19.224;2023-12-29T03:34:53;20.00;;;9.80;;
75246;SDS011;63844;50.042;19.224;2023-12-29T03:36:29;16.80;;;9.10;;
75246;SDS011;63844;50.042;19.224;2023-12-29T03:38:06;17.70;;;9.80;;
75246;SDS011;63844;50.042;19.224;2023-12-29T03:39:42;20.80;;;9.60;;
75246;SDS011;63844;50.042;19.224;2023-12-29T03:41:18;16.90;;;8.60;;
75246;SDS011;63844;50.042;19.224;2023-12-29T03:42:55;15.40;;;9.40;;
75246;SDS011;63844;50.042;19.224;2023-12-29T03:44:31;15.40;;;8.40;;
75246;SDS011;63844;50.042;19.224;2023-12-29T03:46:20;17.10;;;8.90;;
75246;SDS011;63844;50.042;19.224;2023-12-29T03:47:58;17.40;;;8.10;;
75246;SDS011;63844;50.042;19.224;2023-12-29T03:49:34;16.00;;;7.80;;
75246;SDS011;63844;50.042;19.224;2023-12-29T03:51:10;10.20;;;5.20;;
75246;SDS011;63844;50.042;19.224;2023-12-29T03:52:47;11.60;;;6.00;;
75246;SDS011;63844;50.042;19.224;2023-12-29T03:54:23;11.00;;;5.90;;
75246;SDS011;63844;50.042;19.224;2023-12-29T03:56:03;12.60;;;7.10;;
75246;SDS011;63844;50.042;19.224;2023-12-29T03:57:44;9.30;;;5.30;;
75246;SDS011;63844;50.042;19.224;2023-12-29T03:59:20;10.10;;;5.40;;
75246;SDS011;63844;50.042;19.224;2023-12-29T04:00:57;11.50;;;5.90;;
75246;SDS011;63844;50.042;19.224;2023-12-29T04:02:33;10.00;;;6.90;;
75246;SDS011;63844;50.042;19.224;2023-12-29T04:04:09;10.20;;;5.20;;
75246;SDS011;63844;50.042;19.224;2023-12-29T04:05:46;10.70;;;5.80;;
75246;SDS011;63844;50.042;19.224;2023-12-29T04:07:22;11.70;;;6.40;;
75246;SDS011;63844;50.042;19.224;2023-12-29T04:08:59;13.90;;;7.40;;
75246;SDS011;63844;50.042;19.224;2023-12-29T04:10:35;11.30;;;6.90;;
75246;SDS011;63844;50.042;19.224;2023-12-29T04:12:11;11.00;;;6.70;;
75246;SDS011;63844;50.042;19.224;2023-12-29T04:13:48;9.20;;;5.60;;
75246;SDS011;63844;50.042;19.224;2023-12-29T04:15:24;9.90;;;6.40;;
75246;SDS011;63844;50.042;19.224;2023-12-29T04:17:00;9.40;;;5.50;;
75246;SDS011;63844;50.042;19.224;2023-12-29T04:18:40;11.90;;;6.50;;
75246;SDS011;63844;50.042;19.224;2023-12-29T04:20:17;10.50;;;6.10;;
75246;SDS011;63844;50.042;19.224;2023-12-29T04:21:53;8.50;;;4.80;;
75246;SDS011;63844;50.042;19.224;2023-12-29T04:23:30;9.40;;;4.40;;
75246;SDS011;63844;50.042;19.224;2023-12-29T04:25:06;8.80;;;4.70;;
75246;SDS011;63844;50.042;19.224;2023-12-29T04:26:43;10.10;;;5.40;;
75246;SDS011;63844;50.042;19.224;2023-12-29T04:28:20;8.10;;;4.30;;
75246;SDS011;63844;50.042;19.224;2023-12-29T04:29:56;6.60;;;3.70;;
75246;SDS011;63844;50.042;19.224;2023-12-29T04:31:32;7.50;;;4.00;;
75246;SDS011;63844;50.042;19.224;2023-12-29T04:33:09;6.20;;;3.50;;
75246;SDS011;63844;50.042;19.224;2023-12-29T04:34:45;5.90;;;3.70;;
75246;SDS011;63844;50.042;19.224;2023-12-29T04:36:22;6.00;;;3.90;;
75246;SDS011;63844;50.042;19.224;2023-12-29T04:37:58;8.00;;;3.90;;
75246;SDS011;63844;50.042;19.224;2023-12-29T04:39:34;7.60;;;4.20;;
75246;SDS011;63844;50.042;19.224;2023-12-29T04:41:14;9.80;;;4.00;;
75246;SDS011;63844;50.042;19.224;2023-12-29T04:42:50;7.10;;;3.50;;
75246;SDS011;63844;50.042;19.224;2023-12-29T04:44:27;8.20;;;3.50;;
75246;SDS011;63844;50.042;19.224;2023-12-29T04:46:03;7.00;;;3.60;;
75246;SDS011;63844;50.042;19.224;2023-12-29T04:47:40;6.30;;;3.70;;
75246;SDS011;63844;50.042;19.224;2023-12-29T04:49:16;8.70;;;4.10;;
75246;SDS011;63844;50.042;19.224;2023-12-29T04:50:52;8.50;;;4.00;;
75246;SDS011;63844;50.042;19.224;2023-12-29T04:52:29;9.40;;;4.10;;
75246;SDS011;63844;50.042;19.224;2023-12-29T04:54:05;7.00;;;3.50;;
75246;SDS011;63844;50.042;19.224;2023-12-29T04:55:42;7.10;;;3.40;;
75246;SDS011;63844;50.042;19.224;2023-12-29T04:57:18;7.30;;;3.80;;
75246;SDS011;63844;50.042;19.224;2023-12-29T04:58:54;7.60;;;3.80;;
75246;SDS011;63844;50.042;19.224;2023-12-29T05:00:32;6.10;;;4.00;;
75246;SDS011;63844;50.042;19.224;2023-12-29T05:02:09;8.00;;;4.60;;
75246;SDS011;63844;50.042;19.224;2023-12-29T05:03:46;8.60;;;4.00;;
75246;SDS011;63844;50.042;19.224;2023-12-29T05:05:22;6.40;;;3.80;;
75246;SDS011;63844;50.042;19.224;2023-12-29T05:06:58;8.50;;;4.50;;
75246;SDS011;63844;50.042;19.224;2023-12-29T05:08:35;7.00;;;4.20;;
75246;SDS011;63844;50.042;19.224;2023-12-29T05:10:11;7.70;;;4.40;;
75246;SDS011;63844;50.042;19.224;2023-12-29T05:11:48;7.20;;;4.10;;
75246;SDS011;63844;50.042;19.224;2023-12-29T05:13:24;7.00;;;4.00;;
75246;SDS011;63844;50.042;19.224;2023-12-29T05:15:00;8.60;;;4.70;;
75246;SDS011;63844;50.042;19.224;2023-12-29T05:16:37;7.70;;;4.80;;
75246;SDS011;63844;50.042;19.224;2023-12-29T05:18:13;6.60;;;4.10;;
75246;SDS011;63844;50.042;19.224;2023-12-29T05:19:50;9.80;;;3.90;;
75246;SDS011;63844;50.042;19.224;2023-12-29T05:21:26;9.90;;;4.20;;
75246;SDS011;63844;50.042;19.224;2023-12-29T05:23:03;8.60;;;5.30;;
75246;SDS011;63844;50.042;19.224;2023-12-29T05:24:39;9.80;;;6.00;;
75246;SDS011;63844;50.042;19.224;2023-12-29T05:26:16;7.70;;;4.90;;
75246;SDS011;63844;50.042;19.224;2023-12-29T05:27:52;9.00;;;4.90;;
75246;SDS011;63844;50.042;19.224;2023-12-29T05:29:28;7.60;;;4.60;;
75246;SDS011;63844;50.042;19.224;2023-12-29T05:31:05;7.70;;;4.30;;
75246;SDS011;63844;50.042;19.224;2023-12-29T05:32:41;9.00;;;4.80;;
75246;SDS011;63844;50.042;19.224;2023-12-29T05:34:18;7.20;;;3.90;;
75246;SDS011;63844;50.042;19.224;2023-12-29T05:35:54;6.90;;;3.70;;
75246;SDS011;63844;50.042;19.224;2023-12-29T05:37:30;5.70;;;3.90;;
75246;SDS011;63844;50.042;19.224;2023-12-29T05:39:07;7.80;;;4.30;;
75246;SDS011;63844;50.042;19.224;2023-12-29T05:40:43;7.40;;;4.40;;
75246;SDS011;63844;50.042;19.224;2023-12-29T05:42:20;9.50;;;4.20;;
75246;SDS011;63844;50.042;19.224;2023-12-29T05:43:56;8.10;;;4.20;;
75246;SDS011;63844;50.042;19.224;2023-12-29T05:45:34;5.80;;;3.90;;
75246;SDS011;63844;50.042;19.224;2023-12-29T05:47:11;10.20;;;4.20;;
75246;SDS011;63844;50.042;19.224;2023-12-29T05:48:48;6.90;;;4.00;;
75246;SDS011;63844;50.042;19.224;2023-12-29T05:50:24;9.40;;;4.00;;
75246;SDS011;63844;50.042;19.224;2023-12-29T05:52:00;7.20;;;4.50;;
75246;SDS011;63844;50.042;19.224;2023-12-29T05:53:39;9.30;;;4.50;;
75246;SDS011;63844;50.042;19.224;2023-12-29T05:55:16;7.80;;;4.10;;
75246;SDS011;63844;50.042;19.224;2023-12-29T05:56:52;8.70;;;4.50;;
75246;SDS011;63844;50.042;19.224;2023-12-29T05:58:28;11.30;;;5.40;;
75246;SDS011;63844;50.042;19.224;2023-12-29T06:00:05;10.70;;;5.10;;
75246;SDS011;63844;50.042;19.224;2023-12-29T06:01:42;11.10;;;6.00;;
75246;SDS011;63844;50.042;19.224;2023-12-29T06:03:18;12.50;;;6.60;;
75246;SDS011;63844;50.042;19.224;2023-12-29T06:04:55;12.40;;;6.00;;
75246;SDS011;63844;50.042;19.224;2023-12-29T06:06:31;10.50;;;5.50;;
75246;SDS011;63844;50.042;19.224;2023-12-29T06:08:08;7.60;;;4.60;;
75246;SDS011;63844;50.042;19.224;2023-12-29T06:09:44;6.40;;;3.50;;
75246;SDS011;63844;50.042;19.224;2023-12-29T06:11:20;7.10;;;3.60;;
75246;SDS011;63844;50.042;19.224;2023-12-29T06:12:57;5.40;;;3.00;;
75246;SDS011;63844;50.042;19.224;2023-12-29T06:14:35;16.10;;;3.10;;
75246;SDS011;63844;50.042;19.224;2023-12-29T06:16:19;4.80;;;2.10;;
75246;SDS011;63844;50.042;19.224;2023-12-29T06:17:56;5.50;;;2.60;;
75246;SDS011;63844;50.042;19.224;2023-12-29T06:19:33;4.90;;;2.40;;
75246;SDS011;63844;50.042;19.224;2023-12-29T06:21:10;6.20;;;2.60;;
75246;SDS011;63844;50.042;19.224;2023-12-29T06:22:46;5.50;;;2.70;;
75246;SDS011;63844;50.042;19.224;2023-12-29T06:24:22;6.40;;;3.10;;
75246;SDS011;63844;50.042;19.224;2023-12-29T06:25:59;6.30;;;3.30;;
75246;SDS011;63844;50.042;19.224;2023-12-29T06:27:35;5.70;;;2.90;;
75246;SDS011;63844;50.042;19.224;2023-12-29T06:29:13;5.90;;;2.80;;
75246;SDS011;63844;50.042;19.224;2023-12-29T06:30:50;5.10;;;3.00;;
75246;SDS011;63844;50.042;19.224;2023-12-29T06:32:26;5.00;;;2.80;;
75246;SDS011;63844;50.042;19.224;2023-12-29T06:34:02;4.70;;;2.50;;
75246;SDS011;63844;50.042;19.224;2023-12-29T06:35:39;4.40;;;2.50;;
75246;SDS011;63844;50.042;19.224;2023-12-29T06:37:15;6.30;;;2.60;;
75246;SDS011;63844;50.042;19.224;2023-12-29T06:38:52;5.40;;;2.50;;
75246;SDS011;63844;50.042;19.224;2023-12-29T06:40:28;7.10;;;2.40;;
75246;SDS011;63844;50.042;19.224;2023-12-29T06:42:05;4.90;;;2.40;;
75246;SDS011;63844;50.042;19.224;2023-12-29T06:43:41;5.50;;;2.40;;
75246;SDS011;63844;50.042;19.224;2023-12-29T06:45:18;4.40;;;2.30;;
75246;SDS011;63844;50.042;19.224;2023-12-29T06:46:54;4.30;;;1.80;;
75246;SDS011;63844;50.042;19.224;2023-12-29T06:48:31;3.40;;;1.80;;
75246;SDS011;63844;50.042;19.224;2023-12-29T06:50:07;3.70;;;1.80;;
75246;SDS011;63844;50.042;19.224;2023-12-29T06:51:48;4.10;;;1.70;;
75246;SDS011;63844;50.042;19.224;2023-12-29T06:53:25;4.50;;;2.10;;
75246;SDS011;63844;50.042;19.224;2023-12-29T06:55:01;2.40;;;1.20;;
75246;SDS011;63844;50.042;19.224;2023-12-29T06:56:37;3.20;;;1.50;;
75246;SDS011;63844;50.042;19.224;2023-12-29T06:58:14;3.10;;;1.50;;
75246;SDS011;63844;50.042;19.224;2023-12-29T06:59:50;2.80;;;1.60;;
75246;SDS011;63844;50.042;19.224;2023-12-29T07:01:27;3.80;;;1.60;;
75246;SDS011;63844;50.042;19.224;2023-12-29T07:03:03;4.00;;;1.80;;
75246;SDS011;63844;50.042;19.224;2023-12-29T07:04:41;4.70;;;1.90;;
75246;SDS011;63844;50.042;19.224;2023-12-29T07:06:19;3.60;;;2.10;;
75246;SDS011;63844;50.042;19.224;2023-12-29T07:07:55;4.70;;;1.80;;
75246;SDS011;63844;50.042;19.224;2023-12-29T07:09:32;5.10;;;1.70;;
75246;SDS011;63844;50.042;19.224;2023-12-29T07:11:11;4.40;;;1.70;;
75246;SDS011;63844;50.042;19.224;2023-12-29T07:12:48;4.60;;;1.80;;
75246;SDS011;63844;50.042;19.224;2023-12-29T07:14:24;4.00;;;1.80;;
75246;SDS011;63844;50.042;19.224;2023-12-29T07:16:01;6.00;;;2.70;;
75246;SDS011;63844;50.042;19.224;2023-12-29T07:17:37;6.10;;;3.40;;
75246;SDS011;63844;50.042;19.224;2023-12-29T07:19:14;5.70;;;3.20;;
75246;SDS011;63844;50.042;19.224;2023-12-29T07:20:50;5.60;;;3.60;;
75246;SDS011;63844;50.042;19.224;2023-12-29T07:22:26;5.40;;;2.40;;
75246;SDS011;63844;50.042;19.224;2023-12-29T07:24:03;3.80;;;2.50;;
75246;SDS011;63844;50.042;19.224;2023-12-29T07:25:39;4.60;;;1.90;;
75246;SDS011;63844;50.042;19.224;2023-12-29T07:27:16;4.10;;;2.00;;
75246;SDS011;63844;50.042;19.224;2023-12-29T07:28:52;5.10;;;2.20;;
75246;SDS011;63844;50.042;19.224;2023-12-29T07:30:30;4.50;;;2.30;;
75246;SDS011;63844;50.042;19.224;2023-12-29T07:32:06;4.00;;;2.00;;
75246;SDS011;63844;50.042;19.224;2023-12-29T07:33:43;4.10;;;2.50;;
75246;SDS011;63844;50.042;19.224;2023-12-29T07:35:19;5.20;;;2.80;;
75246;SDS011;63844;50.042;19.224;2023-12-29T07:36:56;4.50;;;2.90;;
75246;SDS011;63844;50.042;19.224;2023-12-29T07:38:32;4.20;;;2.10;;
75246;SDS011;63844;50.042;19.224;2023-12-29T07:40:10;4.80;;;2.20;;
75246;SDS011;63844;50.042;19.224;2023-12-29T07:41:47;2.90;;;1.80;;
75246;SDS011;63844;50.042;19.224;2023-12-29T07:43:24;3.80;;;1.70;;
75246;SDS011;63844;50.042;19.224;2023-12-29T07:45:01;3.20;;;1.60;;
75246;SDS011;63844;50.042;19.224;2023-12-29T07:46:37;3.00;;;1.60;;
75246;SDS011;63844;50.042;19.224;2023-12-29T07:48:15;2.20;;;1.60;;
75246;SDS011;63844;50.042;19.224;2023-12-29T07:49:51;5.40;;;2.70;;
75246;SDS011;63844;50.042;19.224;2023-12-29T07:51:27;4.20;;;1.50;;
75246;SDS011;63844;50.042;19.224;2023-12-29T07:53:04;3.00;;;1.80;;
75246;SDS011;63844;50.042;19.224;2023-12-29T07:54:42;5.10;;;2.30;;
75246;SDS011;63844;50.042;19.224;2023-12-29T07:56:18;2.00;;;1.40;;
75246;SDS011;63844;50.042;19.224;2023-12-29T07:57:55;2.10;;;1.30;;
75246;SDS011;63844;50.042;19.224;2023-12-29T07:59:32;3.50;;;2.20;;
75246;SDS011;63844;50.042;19.224;2023-12-29T08:01:09;4.40;;;1.70;;
75246;SDS011;63844;50.042;19.224;2023-12-29T08:02:46;3.10;;;2.20;;
75246;SDS011;63844;50.042;19.224;2023-12-29T08:04:22;4.50;;;2.30;;
75246;SDS011;63844;50.042;19.224;2023-12-29T08:05:59;3.20;;;1.90;;
75246;SDS011;63844;50.042;19.224;2023-12-29T08:07:36;5.20;;;1.90;;
75246;SDS011;63844;50.042;19.224;2023-12-29T08:09:16;2.90;;;1.50;;
75246;SDS011;63844;50.042;19.224;2023-12-29T08:10:52;2.20;;;1.20;;
75246;SDS011;63844;50.042;19.224;2023-12-29T08:12:28;3.00;;;1.60;;
75246;SDS011;63844;50.042;19.224;2023-12-29T08:14:05;3.30;;;1.70;;
75246;SDS011;63844;50.042;19.224;2023-12-29T08:15:42;4.10;;;2.20;;
75246;SDS011;63844;50.042;19.224;2023-12-29T08:17:19;2.30;;;1.60;;
75246;SDS011;63844;50.042;19.224;2023-12-29T08:18:55;3.30;;;1.70;;
75246;SDS011;63844;50.042;19.224;2023-12-29T08:20:32;2.90;;;1.60;;
75246;SDS011;63844;50.042;19.224;2023-12-29T08:22:08;3.30;;;1.70;;
75246;SDS011;63844;50.042;19.224;2023-12-29T08:23:47;2.60;;;1.40;;
75246;SDS011;63844;50.042;19.224;2023-12-29T08:25:25;2.60;;;1.60;;
75246;SDS011;63844;50.042;19.224;2023-12-29T08:27:01;3.20;;;1.10;;
75246;SDS011;63844;50.042;19.224;2023-12-29T08:28:38;1.30;;;0.90;;
75246;SDS011;63844;50.042;19.224;2023-12-29T08:30:15;2.00;;;1.00;;
75246;SDS011;63844;50.042;19.224;2023-12-29T08:31:51;4.20;;;1.40;;
75246;SDS011;63844;50.042;19.224;2023-12-29T08:33:28;2.30;;;1.10;;
75246;SDS011;63844;50.042;19.224;2023-12-29T08:35:05;4.00;;;1.50;;
75246;SDS011;63844;50.042;19.224;2023-12-29T08:36:42;2.70;;;1.40;;
75246;SDS011;63844;50.042;19.224;2023-12-29T08:38:18;2.50;;;1.40;;
75246;SDS011;63844;50.042;19.224;2023-12-29T08:39:55;2.80;;;1.40;;
75246;SDS011;63844;50.042;19.224;2023-12-29T08:41:31;2.00;;;1.10;;
75246;SDS011;63844;50.042;19.224;2023-12-29T08:43:08;3.00;;;1.60;;
75246;SDS011;63844;50.042;19.224;2023-12-29T08:44:44;1.80;;;1.00;;
75246;SDS011;63844;50.042;19.224;2023-12-29T08:46:20;1.80;;;1.10;;
75246;SDS011;63844;50.042;19.224;2023-12-29T08:47:58;2.90;;;1.20;;
75246;SDS011;63844;50.042;19.224;2023-12-29T08:49:36;2.50;;;1.50;;
75246;SDS011;63844;50.042;19.224;2023-12-29T08:51:13;2.30;;;1.20;;
75246;SDS011;63844;50.042;19.224;2023-12-29T08:52:50;1.80;;;0.90;;
75246;SDS011;63844;50.042;19.224;2023-12-29T08:54:26;2.30;;;1.20;;
75246;SDS011;63844;50.042;19.224;2023-12-29T08:56:03;1.60;;;0.70;;
75246;SDS011;63844;50.042;19.224;2023-12-29T08:57:40;2.80;;;1.20;;
75246;SDS011;63844;50.042;19.224;2023-12-29T08:59:17;2.10;;;1.00;;
75246;SDS011;63844;50.042;19.224;2023-12-29T09:00:53;3.90;;;1.40;;
75246;SDS011;63844;50.042;19.224;2023-12-29T09:02:30;2.00;;;1.00;;
75246;SDS011;63844;50.042;19.224;2023-12-29T09:04:06;2.40;;;0.80;;
75246;SDS011;63844;50.042;19.224;2023-12-29T09:05:43;2.40;;;1.10;;
75246;SDS011;63844;50.042;19.224;2023-12-29T09:07:19;2.70;;;1.10;;
75246;SDS011;63844;50.042;19.224;2023-12-29T09:08:56;2.80;;;1.20;;
75246;SDS011;63844;50.042;19.224;2023-12-29T09:10:32;3.40;;;1.40;;
75246;SDS011;63844;50.042;19.224;2023-12-29T09:12:08;2.20;;;1.20;;
75246;SDS011;63844;50.042;19.224;2023-12-29T09:13:45;1.70;;;1.30;;
75246;SDS011;63844;50.042;19.224;2023-12-29T09:15:21;3.40;;;1.40;;
75246;SDS011;63844;50.042;19.224;2023-12-29T09:16:59;3.00;;;1.50;;
75246;SDS011;63844;50.042;19.224;2023-12-29T09:18:35;2.60;;;1.50;;
75246;SDS011;63844;50.042;19.224;2023-12-29T09:20:12;2.70;;;1.10;;
75246;SDS011;63844;50.042;19.224;2023-12-29T09:21:50;3.00;;;1.40;;
75246;SDS011;63844;50.042;19.224;2023-12-29T09:23:27;2.70;;;1.30;;
75246;SDS011;63844;50.042;19.224;2023-12-29T09:25:03;3.50;;;1.50;;
75246;SDS011;63844;50.042;19.224;2023-12-29T09:26:40;2.20;;;1.20;;
75246;SDS011;63844;50.042;19.224;2023-12-29T09:28:17;2.30;;;1.20;;
75246;SDS011;63844;50.042;19.224;2023-12-29T09:29:53;2.80;;;1.30;;